sensor_id;sensor_type;location;lat;lon;timestamp;temperature;humidity
52024;DHT22;38038;45.922;13.604;2023-12-28T21:34:37;8.80;99.90
52024;DHT22;38038;45.922;13.604;2023-12-28T21:37:05;8.80;99.90
52024;DHT22;38038;45.922;13.604;2023-12-28T21:39:31;8.70;99.90
52024;DHT22;38038;45.922;13.604;2023-12-28T21:41:59;8.70;99.90
52024;DHT22;38038;45.922;13.604;2023-12-28T21:44:25;8.70;99.90
52024;DHT22;38038;45.922;13.604;2023-12-28T21:46:51;8.70;99.90
52024;DHT22;38038;45.922;13.604;2023-12-28T21:49:16;8.70;99.90
52024;DHT22;38038;45.922;13.604;2023-12-28T21:51:44;8.70;99.90
52024;DHT22;38038;45.922;13.604;2023-12-28T21:54:14;8.70;99.90
52024;DHT22;38038;45.922;13.604;2023-12-28T21:56:40;8.70;99.90
52024;DHT22;38038;45.922;13.604;2023-12-28T21:59:08;8.70;99.90
52024;DHT22;38038;45.922;13.604;2023-12-28T22:01:34;8.80;99.90
52024;DHT22;38038;45.922;13.604;2023-12-28T22:03:59;8.80;99.90
52024;DHT22;38038;45.922;13.604;2023-12-28T22:06:26;8.70;99.90
52024;DHT22;38038;45.922;13.604;2023-12-28T22:08:51;8.70;99.90
52024;DHT22;38038;45.922;13.604;2023-12-28T22:11:17;8.80;99.90
52024;DHT22;38038;45.922;13.604;2023-12-28T22:13:43;8.70;99.90
52024;DHT22;38038;45.922;13.604;2023-12-28T22:16:08;8.70;99.90
52024;DHT22;38038;45.922;13.604;2023-12-28T22:18:35;8.60;99.90
52024;DHT22;38038;45.922;13.604;2023-12-28T22:21:00;8.60;99.90
52024;DHT22;38038;45.922;13.604;2023-12-28T22:23:26;8.70;99.90
52024;DHT22;38038;45.922;13.604;2023-12-28T22:25:52;8.70;99.90
52024;DHT22;38038;45.922;13.604;2023-12-28T22:28:18;8.70;99.90
52024;DHT22;38038;45.922;13.604;2023-12-28T22:30:44;8.60;99.90
52024;DHT22;38038;45.922;13.604;2023-12-28T22:33:09;8.60;99.90
52024;DHT22;38038;45.922;13.604;2023-12-28T22:35:35;8.50;99.90
52024;DHT22;38038;45.922;13.604;2023-12-28T22:38:01;8.40;99.90
52024;DHT22;38038;45.922;13.604;2023-12-28T22:40:26;8.30;99.90
52024;DHT22;38038;45.922;13.604;2023-12-28T22:42:52;8.30;99.90
52024;DHT22;38038;45.922;13.604;2023-12-28T22:45:18;8.30;99.90
52024;DHT22;38038;45.922;13.604;2023-12-28T22:47:44;8.30;99.90
52024;DHT22;38038;45.922;13.604;2023-12-28T22:50:10;8.40;99.90
52024;DHT22;38038;45.922;13.604;2023-12-28T22:52:35;8.40;99.90
52024;DHT22;38038;45.922;13.604;2023-12-28T22:55:01;8.30;99.90
52024;DHT22;38038;45.922;13.604;2023-12-28T22:57:30;8.30;99.90
52024;DHT22;38038;45.922;13.604;2023-12-28T22:59:56;8.30;99.90
52024;DHT22;38038;45.922;13.604;2023-12-28T23:02:22;8.30;99.90
52024;DHT22;38038;45.922;13.604;2023-12-28T23:04:47;8.30;99.90
52024;DHT22;38038;45.922;13.604;2023-12-28T23:07:13;8.40;99.90
52024;DHT22;38038;45.922;13.604;2023-12-28T23:09:41;8.30;99.90
52024;DHT22;38038;45.922;13.604;2023-12-28T23:12:07;8.30;99.90
52024;DHT22;38038;45.922;13.604;2023-12-28T23:14:33;8.30;99.90
52024;DHT22;38038;45.922;13.604;2023-12-28T23:16:58;8.30;99.90
52024;DHT22;38038;45.922;13.604;2023-12-28T23:19:24;8.30;99.90
52024;DHT22;38038;45.922;13.604;2023-12-28T23:21:50;8.30;99.90
52024;DHT22;38038;45.922;13.604;2023-12-28T23:24:15;8.20;99.90
52024;DHT22;38038;45.922;13.604;2023-12-28T23:26:41;8.20;99.90
52024;DHT22;38038;45.922;13.604;2023-12-28T23:29:07;8.20;99.90
52024;DHT22;38038;45.922;13.604;2023-12-28T23:31:32;8.10;99.90
52024;DHT22;38038;45.922;13.604;2023-12-28T23:33:58;8.20;99.90
52024;DHT22;38038;45.922;13.604;2023-12-28T23:36:24;8.20;99.90
52024;DHT22;38038;45.922;13.604;2023-12-28T23:38:49;8.20;99.90
52024;DHT22;38038;45.922;13.604;2023-12-28T23:41:15;8.20;99.90
52024;DHT22;38038;45.922;13.604;2023-12-28T23:43:41;8.20;99.90
52024;DHT22;38038;45.922;13.604;2023-12-28T23:46:06;8.10;99.90
52024;DHT22;38038;45.922;13.604;2023-12-28T23:48:33;8.20;99.90
52024;DHT22;38038;45.922;13.604;2023-12-28T23:50:59;8.20;99.90
52024;DHT22;38038;45.922;13.604;2023-12-28T23:53:25;8.20;99.90
52024;DHT22;38038;45.922;13.604;2023-12-28T23:55:50;8.30;99.90
52024;DHT22;38038;45.922;13.604;2023-12-28T23:58:17;8.30;99.90
